Time;durP1;ratioP1;P1;durP2;ratioP2;P2;SDS_P1;SDS_P2;PMS_P1;PMS_P2;Temp;Humidity;BMP_temperature;BMP_pressure;BME280_temperature;BME280_humidity;BME280_pressure;Samples;Min_cycle;Max_cycle;Signal;HPM_P1;HPM_P2
2023/09/14 00:02:17;;;;;;;0.50;0.40;;;14.10;99.90;;;;;;5054363;28;20461;-79
2023/09/14 00:04:44;;;;;;;0.50;0.30;;;14.10;99.90;;;;;;5054119;28;20454;-80
2023/09/14 00:07:12;;;;;;;0.50;0.40;;;14.10;99.90;;;;;;5054610;28;20447;-82
2023/09/14 00:09:39;;;;;;;0.50;0.40;;;14.00;99.90;;;;;;5053893;28;20856;-82
2023/09/14 00:12:07;;;;;;;0.50;0.40;;;14.00;99.90;;;;;;5054372;28;21094;-81
2023/09/14 00:14:33;;;;;;;0.50;0.40;;;14.00;99.90;;;;;;5053716;28;20458;-81
2023/09/14 00:17:00;;;;;;;0.50;0.40;;;13.90;99.90;;;;;;5054217;28;20444;-79
2023/09/14 00:19:27;;;;;;;0.50;0.40;;;13.90;99.90;;;;;;5054127;28;20443;-82
2023/09/14 00:21:54;;;;;;;0.50;0.40;;;13.90;99.90;;;;;;5054141;28;20969;-80
2023/09/14 00:24:22;;;;;;;0.50;0.40;;;13.80;99.90;;;;;;5053264;28;20542;-80
2023/09/14 00:26:49;;;;;;;0.50;0.40;;;13.70;99.90;;;;;;5053945;28;20960;-80
2023/09/14 00:29:16;;;;;;;0.50;0.40;;;13.70;99.90;;;;;;5054265;28;20478;-81
2023/09/14 00:31:42;;;;;;;0.50;0.40;;;13.70;99.90;;;;;;5054053;28;20955;-82
2023/09/14 00:34:09;;;;;;;0.50;0.40;;;13.70;99.90;;;;;;5053633;28;20440;-81
2023/09/14 00:36:36;;;;;;;0.50;0.40;;;13.60;99.90;;;;;;5053976;28;20439;-82
2023/09/14 00:39:03;;;;;;;0.50;0.40;;;13.60;99.90;;;;;;5054269;28;20440;-81
2023/09/14 00:41:31;;;;;;;0.50;0.40;;;13.60;99.90;;;;;;5053662;28;20459;-82
2023/09/14 00:43:58;;;;;;;0.50;0.40;;;13.50;99.90;;;;;;5053668;28;20437;-82
2023/09/14 00:46:25;;;;;;;0.50;0.40;;;13.40;99.90;;;;;;5053495;28;20435;-79
2023/09/14 00:48:53;;;;;;;0.50;0.40;;;13.40;99.90;;;;;;5053580;28;20854;-81
2023/09/14 00:51:20;;;;;;;0.50;0.40;;;13.40;99.90;;;;;;5053240;28;20467;-80
2023/09/14 00:53:47;;;;;;;0.50;0.40;;;13.40;99.90;;;;;;5052986;28;20449;-83
2023/09/14 00:56:14;;;;;;;0.50;0.40;;;13.30;99.90;;;;;;5053304;28;20480;-81
2023/09/14 00:58:42;;;;;;;0.50;0.40;;;13.30;99.90;;;;;;5053585;28;20590;-81
2023/09/14 01:01:10;;;;;;;0.50;0.40;;;13.30;99.90;;;;;;5053411;28;20466;-81
2023/09/14 01:03:37;;;;;;;0.50;0.40;;;13.30;99.90;;;;;;5052930;28;20904;-82
2023/09/14 01:06:05;;;;;;;0.50;0.40;;;13.30;99.90;;;;;;5052627;28;20449;-77
2023/09/14 01:08:31;;;;;;;0.50;0.40;;;13.30;99.90;;;;;;5052832;28;20482;-82
2023/09/14 01:10:58;;;;;;;0.50;0.40;;;13.30;99.90;;;;;;5052893;28;20474;-79
2023/09/14 01:13:33;;;;;;;0.50;0.40;;;13.20;99.90;;;;;;5053261;28;20446;-80
2023/09/14 01:16:10;;;;;;;0.50;0.40;;;13.20;99.90;;;;;;5052962;28;20443;-81
2023/09/14 01:18:42;;;;;;;0.50;0.40;;;13.20;99.90;;;;;;5053228;28;20929;-79
2023/09/14 01:22:05;;;;;;;0.50;0.40;;;13.20;99.90;;;;;;5052879;28;20463;-81
2023/09/14 01:24:46;;;;;;;0.50;0.40;;;13.20;99.90;;;;;;5052499;28;20458;-80
2023/09/14 01:27:15;;;;;;;0.50;0.40;;;13.10;99.90;;;;;;5053047;28;20447;-81
2023/09/14 01:29:42;;;;;;;0.50;0.40;;;13.10;99.90;;;;;;5066602;28;20477;-81
2023/09/14 01:32:11;;;;;;;0.50;0.40;;;13.10;99.90;;;;;;5052666;28;20802;-81
2023/09/14 01:34:38;;;;;;;0.50;0.40;;;13.00;99.90;;;;;;5052155;28;20818;-81
2023/09/14 01:37:05;;;;;;;0.50;0.40;;;13.00;99.90;;;;;;5052386;28;20440;-79
2023/09/14 01:39:34;;;;;;;0.50;0.40;;;13.00;99.90;;;;;;5052235;28;20435;-81
2023/09/14 01:42:02;;;;;;;0.50;0.40;;;13.00;99.90;;;;;;5052167;28;20969;-81
2023/09/14 01:44:31;;;;;;;0.50;0.40;;;12.90;99.90;;;;;;5052025;28;20566;-80
2023/09/14 01:46:58;;;;;;;0.50;0.40;;;12.90;99.90;;;;;;5052621;28;20442;-81
2023/09/14 01:49:25;;;;;;;0.50;0.40;;;12.80;99.90;;;;;;5052415;28;20470;-80
2023/09/14 01:51:52;;;;;;;0.50;0.40;;;12.80;99.90;;;;;;5052297;28;20469;-83
2023/09/14 01:54:18;;;;;;;0.50;0.40;;;12.80;99.90;;;;;;5052104;28;20448;-80
2023/09/14 01:56:46;;;;;;;0.50;0.40;;;12.80;99.90;;;;;;5051990;28;20440;-77
2023/09/14 01:59:13;;;;;;;0.50;0.40;;;12.80;99.90;;;;;;5052754;28;20438;-80
2023/09/14 02:01:41;;;;;;;0.50;0.40;;;12.70;99.90;;;;;;5052578;28;20470;-78
2023/09/14 02:04:07;;;;;;;0.50;0.40;;;12.70;99.90;;;;;;5052172;28;20446;-80
2023/09/14 02:06:34;;;;;;;0.50;0.40;;;12.70;99.90;;;;;;5052477;28;20960;-81
2023/09/14 02:09:01;;;;;;;0.50;0.40;;;12.80;99.90;;;;;;5052716;28;20482;-79
2023/09/14 02:11:28;;;;;;;0.50;0.40;;;12.80;99.90;;;;;;5052378;28;20513;-80
2023/09/14 02:13:55;;;;;;;0.50;0.40;;;12.80;99.90;;;;;;5055379;28;20441;-78
2023/09/14 02:16:22;;;;;;;0.50;0.40;;;12.80;99.90;;;;;;5056688;28;20443;-81
2023/09/14 02:18:50;;;;;;;0.50;0.40;;;12.90;99.90;;;;;;5056169;28;20440;-81
2023/09/14 02:21:16;;;;;;;0.50;0.40;;;12.90;99.90;;;;;;5056198;28;20464;-78
2023/09/14 02:23:43;;;;;;;0.50;0.40;;;12.90;99.90;;;;;;5055720;28;20890;-81
2023/09/14 02:26:10;;;;;;;0.50;0.40;;;12.90;99.90;;;;;;5056131;28;20818;-81
2023/09/14 02:28:37;;;;;;;0.50;0.40;;;12.90;99.90;;;;;;5055912;28;20479;-81
2023/09/14 02:31:07;;;;;;;0.50;0.40;;;13.00;99.90;;;;;;5056472;28;20466;-80
2023/09/14 02:33:34;;;;;;;0.50;0.40;;;13.00;99.90;;;;;;5055872;28;21115;-79
2023/09/14 02:36:02;;;;;;;0.50;0.40;;;13.10;99.90;;;;;;5056335;28;20236;-80
2023/09/14 02:38:29;;;;;;;0.50;0.40;;;13.10;99.90;;;;;;5055891;28;20198;-80
2023/09/14 02:40:55;;;;;;;0.50;0.40;;;13.10;99.90;;;;;;5056046;28;20212;-80
2023/09/14 02:43:22;;;;;;;0.50;0.40;;;13.10;99.90;;;;;;5055566;28;20441;-81
2023/09/14 02:45:49;;;;;;;0.50;0.40;;;13.10;99.90;;;;;;5055639;28;20196;-80
2023/09/14 02:48:16;;;;;;;0.50;0.40;;;13.10;99.90;;;;;;5055580;28;20805;-78
2023/09/14 02:50:44;;;;;;;0.50;0.40;;;13.10;99.90;;;;;;5055419;28;20485;-81
2023/09/14 02:53:12;;;;;;;0.50;0.40;;;13.10;99.90;;;;;;5055638;28;20436;-82
2023/09/14 02:55:39;;;;;;;0.50;0.40;;;13.10;99.90;;;;;;5055481;28;20991;-79
2023/09/14 02:58:07;;;;;;;0.50;0.40;;;13.10;99.90;;;;;;5055344;28;20436;-80
2023/09/14 03:00:34;;;;;;;0.50;0.40;;;13.10;99.90;;;;;;5055534;28;20465;-79
2023/09/14 03:03:01;;;;;;;0.50;0.40;;;13.20;99.90;;;;;;5055664;28;20447;-78
2023/09/14 03:05:27;;;;;;;1.67;0.90;;;13.20;99.90;;;;;;5055019;28;20446;-81
2023/09/14 03:07:54;;;;;;;0.50;0.40;;;13.20;99.90;;;;;;5055079;28;20449;-80
2023/09/14 03:10:22;;;;;;;0.50;0.40;;;13.10;99.90;;;;;;5055109;28;20487;-80
2023/09/14 03:12:49;;;;;;;0.50;0.40;;;13.10;99.90;;;;;;5055303;28;20443;-81
2023/09/14 03:15:16;;;;;;;0.50;0.40;;;13.20;99.90;;;;;;5054759;28;20447;-80
2023/09/14 03:17:43;;;;;;;0.50;0.40;;;13.20;99.90;;;;;;5055382;28;20477;-80
2023/09/14 03:20:11;;;;;;;0.50;0.40;;;13.20;99.90;;;;;;5054783;28;20914;-81
2023/09/14 03:22:37;;;;;;;0.50;0.40;;;13.20;99.90;;;;;;5054845;28;20921;-84
2023/09/14 03:25:05;;;;;;;0.50;0.40;;;13.30;99.90;;;;;;5122569;22;20796;-85
2023/09/14 03:27:33;;;;;;;0.50;0.40;;;13.40;99.90;;;;;;5096107;28;20472;-86
2023/09/14 03:30:00;;;;;;;0.50;0.40;;;13.40;99.90;;;;;;5111744;28;20988;-85
2023/09/14 03:32:27;;;;;;;0.50;0.40;;;13.40;99.90;;;;;;5111734;28;20521;-87
2023/09/14 03:34:54;;;;;;;0.50;0.40;;;13.50;99.90;;;;;;5111354;28;20456;-86
2023/09/14 03:37:20;;;;;;;0.50;0.40;;;13.50;99.90;;;;;;5111338;28;20830;-86
2023/09/14 03:39:47;;;;;;;0.50;0.40;;;13.50;99.90;;;;;;5109989;28;20524;-86
2023/09/14 03:42:14;;;;;;;0.50;0.40;;;13.60;99.90;;;;;;5104745;28;20482;-86
2023/09/14 03:44:42;;;;;;;0.50;0.40;;;13.60;99.90;;;;;;5110422;28;20847;-86
2023/09/14 03:47:09;;;;;;;0.50;0.40;;;13.60;99.90;;;;;;5111382;28;20458;-85
2023/09/14 03:49:36;;;;;;;0.50;0.40;;;13.60;99.90;;;;;;5113096;28;20821;-87
2023/09/14 03:52:02;;;;;;;0.50;0.40;;;13.70;99.90;;;;;;5105013;28;20504;-85
2023/09/14 03:54:29;;;;;;;0.50;0.40;;;13.60;99.90;;;;;;5105992;28;20441;-87
2023/09/14 03:56:56;;;;;;;0.50;0.40;;;13.70;99.90;;;;;;5118357;28;20444;-86
2023/09/14 03:59:23;;;;;;;0.50;0.40;;;13.70;99.90;;;;;;5105459;27;20448;-86
2023/09/14 04:01:51;;;;;;;0.50;0.40;;;13.70;99.90;;;;;;5110766;28;20437;-86
2023/09/14 04:04:18;;;;;;;0.50;0.40;;;13.70;99.90;;;;;;5103482;28;20462;-86
2023/09/14 04:06:47;;;;;;;0.50;0.40;;;13.70;99.90;;;;;;5101133;28;20458;-87
2023/09/14 04:09:14;;;;;;;0.50;0.40;;;13.70;99.90;;;;;;5101466;28;20476;-88
2023/09/14 04:11:41;;;;;;;0.50;0.40;;;13.70;99.90;;;;;;5108328;28;20470;-86
2023/09/14 04:14:08;;;;;;;0.50;0.40;;;13.70;99.90;;;;;;5094038;28;20451;-85
2023/09/14 04:16:34;;;;;;;0.50;0.40;;;13.70;99.90;;;;;;5110922;28;21018;-84
2023/09/14 04:19:03;;;;;;;0.50;0.40;;;13.70;99.90;;;;;;5107118;28;20852;-85
2023/09/14 04:21:29;;;;;;;0.50;0.40;;;13.70;99.90;;;;;;5107603;28;20517;-85
2023/09/14 04:23:56;;;;;;;0.50;0.40;;;13.70;99.90;;;;;;5108046;28;20886;-85
2023/09/14 04:26:22;;;;;;;0.50;0.40;;;13.60;99.90;;;;;;5111039;28;20486;-86
2023/09/14 04:28:49;;;;;;;0.50;0.40;;;13.60;99.90;;;;;;5109271;28;20441;-85
2023/09/14 04:31:16;;;;;;;0.50;0.40;;;13.60;99.90;;;;;;5107306;28;20469;-85
2023/09/14 04:33:43;;;;;;;0.50;0.40;;;13.60;99.90;;;;;;5107203;28;20452;-86
2023/09/14 04:36:11;;;;;;;0.50;0.40;;;13.70;99.90;;;;;;5098469;28;20958;-86
2023/09/14 04:38:38;;;;;;;0.50;0.40;;;13.70;99.90;;;;;;5106503;28;20454;-82
2023/09/14 04:41:05;;;;;;;0.50;0.40;;;13.70;99.90;;;;;;5115186;28;20552;-86
2023/09/14 04:43:32;;;;;;;0.50;0.40;;;13.70;99.90;;;;;;5106866;28;20472;-87
2023/09/14 04:46:00;;;;;;;0.50;0.40;;;13.70;99.90;;;;;;5114504;28;20457;-85
2023/09/14 04:48:27;;;;;;;0.50;0.40;;;13.70;99.90;;;;;;5112969;28;20880;-85
2023/09/14 04:50:56;;;;;;;0.50;0.40;;;13.70;99.90;;;;;;5108715;28;20564;-85
2023/09/14 04:53:24;;;;;;;0.50;0.40;;;13.70;99.90;;;;;;5103727;28;20848;-86
2023/09/14 04:55:51;;;;;;;0.50;0.40;;;13.70;99.90;;;;;;5114781;28;20491;-84
2023/09/14 04:58:18;;;;;;;0.50;0.40;;;13.70;99.90;;;;;;5122766;28;20538;-84
2023/09/14 05:00:48;;;;;;;0.50;0.40;;;13.70;99.90;;;;;;5122522;28;20451;-84
2023/09/14 05:03:15;;;;;;;0.50;0.40;;;13.70;99.90;;;;;;5117967;28;20477;-87
2023/09/14 05:05:41;;;;;;;0.50;0.40;;;13.70;99.90;;;;;;5116783;28;20491;-84
2023/09/14 05:08:08;;;;;;;0.50;0.40;;;13.70;99.90;;;;;;5122992;28;20443;-84
2023/09/14 05:10:37;;;;;;;0.50;0.40;;;13.70;99.90;;;;;;5113233;28;20972;-85
2023/09/14 05:13:04;;;;;;;0.50;0.40;;;13.70;99.90;;;;;;5113978;28;20453;-84
2023/09/14 05:15:31;;;;;;;0.50;0.30;;;13.60;99.90;;;;;;5109229;28;20468;-85
2023/09/14 05:17:58;;;;;;;0.50;0.40;;;13.70;99.90;;;;;;5116978;28;20446;-85
2023/09/14 05:20:25;;;;;;;0.50;0.40;;;13.60;99.90;;;;;;5118058;28;20512;-85
2023/09/14 05:22:51;;;;;;;0.50;0.40;;;13.60;99.90;;;;;;5110205;28;20457;-85
2023/09/14 05:25:20;;;;;;;0.50;0.40;;;13.60;99.90;;;;;;5109307;28;20495;-85
2023/09/14 05:27:48;;;;;;;0.50;0.40;;;13.60;99.90;;;;;;5109831;28;20445;-84
2023/09/14 05:30:15;;;;;;;1.07;1.07;;;13.60;99.90;;;;;;5098971;28;20845;-85
2023/09/14 05:32:42;;;;;;;0.50;0.40;;;13.70;99.90;;;;;;5107254;28;20473;-86
2023/09/14 05:35:09;;;;;;;0.50;0.40;;;13.70;99.90;;;;;;5109121;28;20468;-86
2023/09/14 05:37:36;;;;;;;0.50;0.40;;;13.70;99.90;;;;;;5111327;28;20508;-86
2023/09/14 05:40:08;;;;;;;0.50;0.40;;;13.70;99.90;;;;;;5109788;28;20441;-86
2023/09/14 05:42:37;;;;;;;0.50;0.40;;;13.70;99.90;;;;;;5117374;28;20447;-84
2023/09/14 05:45:07;;;;;;;0.50;0.40;;;13.70;99.90;;;;;;5119452;28;20529;-85
2023/09/14 05:47:33;;;;;;;0.50;0.40;;;13.70;99.90;;;;;;5123271;28;20505;-85
2023/09/14 05:50:00;;;;;;;0.50;0.40;;;13.80;99.90;;;;;;5116770;28;20548;-85
2023/09/14 05:52:27;;;;;;;0.50;0.40;;;13.80;99.90;;;;;;5116088;28;20447;-85
2023/09/14 05:54:54;;;;;;;0.50;0.40;;;13.80;99.90;;;;;;5115996;28;20461;-85
2023/09/14 05:57:20;;;;;;;0.50;0.40;;;13.90;99.90;;;;;;5117214;28;20497;-86
2023/09/14 05:59:47;;;;;;;0.50;0.40;;;14.00;99.90;;;;;;5114277;28;20472;-86
2023/09/14 06:02:17;;;;;;;0.50;0.40;;;14.10;99.90;;;;;;5115708;28;20439;-85
2023/09/14 06:04:44;;;;;;;0.50;0.40;;;14.10;99.90;;;;;;5111243;28;20445;-86
2023/09/14 06:07:11;;;;;;;0.50;0.40;;;14.20;99.90;;;;;;5106506;28;20490;-85
2023/09/14 06:09:38;;;;;;;0.50;0.40;;;14.20;99.90;;;;;;5115479;28;20442;-86
2023/09/14 06:12:06;;;;;;;0.50;0.40;;;14.30;99.90;;;;;;5115680;28;20539;-85
2023/09/14 06:14:33;;;;;;;0.50;0.40;;;14.30;99.90;;;;;;5114636;28;20448;-84
2023/09/14 06:17:00;;;;;;;0.50;0.40;;;14.40;99.90;;;;;;5107517;28;20436;-86
2023/09/14 06:19:29;;;;;;;0.50;0.40;;;14.40;99.90;;;;;;5104505;28;20442;-85
2023/09/14 06:21:55;;;;;;;0.50;0.40;;;14.50;99.90;;;;;;5104657;28;20442;-84
2023/09/14 06:24:22;;;;;;;0.50;0.40;;;14.60;99.90;;;;;;5108342;28;20449;-85
2023/09/14 06:26:50;;;;;;;0.50;0.33;;;14.70;99.90;;;;;;5107335;28;20467;-86
2023/09/14 06:29:17;;;;;;;0.50;0.40;;;14.80;99.90;;;;;;5103753;28;20442;-85
2023/09/14 06:31:44;;;;;;;0.50;0.40;;;14.90;99.90;;;;;;5112027;28;20540;-83
2023/09/14 06:34:11;;;;;;;0.50;0.40;;;14.90;99.90;;;;;;5098805;28;20441;-86
2023/09/14 06:36:39;;;;;;;0.50;0.30;;;15.00;99.90;;;;;;5107646;28;20566;-85
2023/09/14 06:39:06;;;;;;;0.50;0.40;;;15.10;99.90;;;;;;5107900;28;20442;-87
2023/09/14 06:41:32;;;;;;;0.50;0.40;;;15.10;99.90;;;;;;5107344;28;20434;-84
2023/09/14 06:43:59;;;;;;;0.50;0.40;;;15.20;99.90;;;;;;5107402;28;20474;-86
2023/09/14 06:46:26;;;;;;;0.50;0.40;;;15.20;99.90;;;;;;5105256;28;20472;-85
2023/09/14 06:48:53;;;;;;;0.50;0.40;;;15.30;99.90;;;;;;5112802;28;20446;-85
2023/09/14 06:51:19;;;;;;;0.50;0.40;;;15.30;99.90;;;;;;5113009;28;20477;-85
2023/09/14 06:53:47;;;;;;;0.50;0.40;;;15.40;99.90;;;;;;5104955;28;20499;-85
2023/09/14 06:56:15;;;;;;;0.50;0.40;;;15.40;99.90;;;;;;5095813;28;20833;-85
2023/09/14 06:58:42;;;;;;;2.13;2.00;;;15.50;99.90;;;;;;5110893;28;20950;-83
2023/09/14 07:01:09;;;;;;;0.50;0.40;;;15.60;99.90;;;;;;5100881;28;20438;-85
2023/09/14 07:03:36;;;;;;;0.50;0.40;;;15.70;99.90;;;;;;5110591;28;20445;-85
2023/09/14 07:06:03;;;;;;;0.50;0.40;;;15.80;99.90;;;;;;5109736;28;20468;-86
2023/09/14 07:08:30;;;;;;;0.50;0.40;;;15.90;99.90;;;;;;5102513;28;20443;-85
2023/09/14 07:10:58;;;;;;;0.50;0.40;;;16.00;99.90;;;;;;5110473;28;20476;-85
2023/09/14 07:13:25;;;;;;;0.50;0.40;;;16.20;99.90;;;;;;5111784;28;20454;-84
2023/09/14 07:15:52;;;;;;;0.50;0.40;;;16.20;99.90;;;;;;5110091;28;20461;-86
2023/09/14 07:18:27;;;;;;;0.50;0.40;;;16.60;99.90;;;;;;5107222;28;20446;-84
2023/09/14 07:20:53;;;;;;;0.50;0.30;;;17.70;99.90;;;;;;5107056;28;20433;-86
2023/09/14 07:23:20;;;;;;;0.50;0.40;;;18.40;99.90;;;;;;5109394;28;20441;-85
2023/09/14 07:25:48;;;;;;;0.50;0.40;;;18.80;99.90;;;;;;5110401;28;20465;-85
2023/09/14 07:28:17;;;;;;;0.50;0.30;;;19.20;99.90;;;;;;5108684;28;20438;-85
2023/09/14 07:30:44;;;;;;;0.50;0.30;;;19.80;99.90;;;;;;5106810;28;21039;-84
2023/09/14 07:33:11;;;;;;;1.07;1.07;;;20.20;99.90;;;;;;5107826;28;20882;-85
2023/09/14 07:35:39;;;;;;;0.50;0.40;;;20.10;99.90;;;;;;5110372;28;20501;-85
2023/09/14 07:38:08;;;;;;;0.50;0.30;;;19.90;99.90;;;;;;5102942;28;20451;-86
2023/09/14 07:40:35;;;;;;;0.50;0.40;;;19.80;99.90;;;;;;5107543;28;20462;-86
2023/09/14 07:43:01;;;;;;;0.50;0.30;;;19.60;99.90;;;;;;5107929;28;20446;-85
2023/09/14 07:45:33;;;;;;;0.50;0.30;;;19.60;99.90;;;;;;5111221;28;20469;-86
2023/09/14 07:48:00;;;;;;;0.50;0.40;;;19.60;99.90;;;;;;5111318;28;20489;-86
2023/09/14 07:50:26;;;;;;;0.50;0.30;;;19.70;99.90;;;;;;5107587;28;20472;-85
2023/09/14 07:52:53;;;;;;;0.50;0.30;;;19.80;99.90;;;;;;5107326;28;20472;-85
2023/09/14 07:55:20;;;;;;;0.60;0.60;;;19.90;99.90;;;;;;5113816;28;20459;-84
2023/09/14 07:57:47;;;;;;;0.50;0.30;;;20.60;99.90;;;;;;5106757;28;20451;-84
2023/09/14 08:00:14;;;;;;;0.80;0.40;;;21.40;99.90;;;;;;5107490;28;20508;-86
2023/09/14 08:02:42;;;;;;;0.50;0.40;;;22.80;99.90;;;;;;5109673;28;20497;-86
2023/09/14 08:05:10;;;;;;;2.17;2.00;;;23.20;99.90;;;;;;5108800;28;20470;-86
2023/09/14 08:07:36;;;;;;;0.50;0.40;;;23.70;99.90;;;;;;5107712;28;20512;-84
2023/09/14 08:10:03;;;;;;;0.50;0.40;;;24.80;99.90;;;;;;5107286;28;20515;-83
2023/09/14 08:12:31;;;;;;;0.50;0.40;;;25.20;99.90;;;;;;5103911;28;20489;-85
2023/09/14 08:14:57;;;;;;;0.50;0.30;;;25.30;99.90;;;;;;5111481;28;20464;-84
2023/09/14 08:17:24;;;;;;;0.50;0.30;;;25.90;99.90;;;;;;5108313;28;20441;-84
2023/09/14 08:19:52;;;;;;;0.50;0.33;;;26.10;99.90;;;;;;5107652;28;20431;-82
2023/09/14 08:22:22;;;;;;;0.50;0.30;;;25.70;99.90;;;;;;5107595;28;20437;-83
2023/09/14 08:24:49;;;;;;;0.50;0.30;;;25.50;99.90;;;;;;5105959;28;20438;-83
2023/09/14 08:27:16;;;;;;;0.50;0.30;;;25.50;99.90;;;;;;5107704;28;20488;-83
2023/09/14 08:29:43;;;;;;;0.50;0.30;;;26.20;99.90;;;;;;5113144;28;20445;-83
2023/09/14 08:32:10;;;;;;;0.50;0.40;;;26.00;99.90;;;;;;5114130;28;20480;-83
2023/09/14 08:34:37;;;;;;;0.50;0.30;;;26.10;99.90;;;;;;5105624;28;20446;-83
2023/09/14 08:37:09;;;;;;;0.50;0.30;;;26.50;99.20;;;;;;5106870;28;20474;-83
2023/09/14 08:39:36;;;;;;;0.83;0.60;;;26.10;97.80;;;;;;5099001;28;20470;-83
2023/09/14 08:42:03;;;;;;;0.50;0.30;;;26.70;98.50;;;;;;5106728;28;20445;-83
2023/09/14 08:44:33;;;;;;;0.50;0.30;;;27.60;97.70;;;;;;5115167;28;20483;-84
2023/09/14 08:47:00;;;;;;;0.50;0.30;;;28.10;96.30;;;;;;5106622;28;20438;-85
2023/09/14 08:49:28;;;;;;;0.60;0.60;;;28.20;94.30;;;;;;5115961;28;20518;-84
2023/09/14 08:51:58;;;;;;;0.60;0.60;;;28.30;91.30;;;;;;5107864;28;20474;-83
2023/09/14 08:54:26;;;;;;;0.50;0.30;;;28.20;88.80;;;;;;5108978;28;20446;-83
2023/09/14 08:56:53;;;;;;;0.50;0.30;;;28.20;90.30;;;;;;5110368;28;20463;-84
2023/09/14 08:59:24;;;;;;;0.50;0.40;;;27.70;87.10;;;;;;5107857;28;20446;-83
2023/09/14 09:01:52;;;;;;;0.50;0.30;;;26.50;91.10;;;;;;5110627;28;20433;-84
2023/09/14 09:04:19;;;;;;;0.50;0.30;;;25.80;91.60;;;;;;5107939;28;20479;-86
2023/09/14 09:06:46;;;;;;;3.60;1.10;;;25.40;94.70;;;;;;5108671;28;20559;-85
2023/09/14 09:09:16;;;;;;;0.50;0.33;;;24.80;91.90;;;;;;5108599;28;20443;-84
2023/09/14 09:11:46;;;;;;;0.50;0.30;;;23.60;93.70;;;;;;5097723;28;20476;-86
2023/09/14 09:14:13;;;;;;;0.60;0.60;;;23.40;99.00;;;;;;5104252;28;20809;-85
2023/09/14 09:16:40;;;;;;;0.50;0.30;;;23.80;99.90;;;;;;5108774;28;20471;-84
2023/09/14 09:19:10;;;;;;;0.50;0.40;;;24.70;99.90;;;;;;5108995;28;20450;-86
2023/09/14 09:21:38;;;;;;;0.67;0.50;;;25.60;99.90;;;;;;5097716;28;20844;-85
2023/09/14 09:24:06;;;;;;;0.50;0.30;;;26.50;95.70;;;;;;5104665;28;20458;-83
2023/09/14 09:26:35;;;;;;;0.50;0.30;;;27.20;93.40;;;;;;5116473;22;20513;-80
2023/09/14 09:29:14;;;;;;;0.50;0.30;;;27.60;95.40;;;;;;5066693;28;20466;-81
2023/09/14 09:31:42;;;;;;;0.50;0.30;;;28.00;94.60;;;;;;5067743;28;20934;-81
2023/09/14 09:34:10;;;;;;;0.50;0.30;;;27.50;90.70;;;;;;5075655;28;20443;-80
2023/09/14 09:36:37;;;;;;;0.50;0.30;;;26.80;92.70;;;;;;5075714;28;20461;-80
2023/09/14 09:39:05;;;;;;;0.50;0.30;;;25.90;94.70;;;;;;5076183;28;20440;-80
2023/09/14 09:41:33;;;;;;;0.50;0.30;;;25.20;94.80;;;;;;5075212;28;20507;-80
2023/09/14 09:44:00;;;;;;;0.50;0.40;;;24.50;95.90;;;;;;5074999;28;20495;-80
2023/09/14 09:46:28;;;;;;;0.50;0.40;;;23.80;95.30;;;;;;5074813;28;20438;-82
2023/09/14 09:48:54;;;;;;;0.50;0.40;;;23.00;94.40;;;;;;5075395;28;20441;-82
2023/09/14 09:51:22;;;;;;;0.50;0.30;;;22.30;99.90;;;;;;5074792;28;20851;-78
2023/09/14 09:54:06;;;;;;;0.50;0.30;;;21.90;99.90;;;;;;5075502;28;20445;-81
2023/09/14 09:56:35;;;;;;;0.50;0.30;;;21.40;99.90;;;;;;5075304;28;20465;-82
2023/09/14 09:59:09;;;;;;;0.50;0.40;;;21.10;99.90;;;;;;5075088;28;20441;-81
2023/09/14 10:01:37;;;;;;;0.50;0.40;;;21.00;99.90;;;;;;5074925;28;20524;-78
2023/09/14 10:04:09;;;;;;;0.50;0.30;;;20.60;99.90;;;;;;5074298;28;20828;-79
2023/09/14 10:06:36;;;;;;;0.50;0.40;;;20.30;99.90;;;;;;5074761;28;20491;-82
2023/09/14 10:09:06;;;;;;;0.50;0.30;;;20.20;99.90;;;;;;5074707;28;20447;-80
2023/09/14 10:11:34;;;;;;;0.50;0.40;;;20.30;99.90;;;;;;5074618;28;20549;-80
2023/09/14 10:14:03;;;;;;;0.50;0.30;;;20.40;99.90;;;;;;5074178;28;20437;-83
2023/09/14 10:16:40;;;;;;;0.50;0.30;;;20.70;99.90;;;;;;5073962;28;20460;-82
2023/09/14 10:19:09;;;;;;;0.50;0.37;;;21.00;99.90;;;;;;5075350;28;20923;-82
2023/09/14 10:21:39;;;;;;;0.50;0.30;;;22.00;99.90;;;;;;5073743;28;20978;-82
2023/09/14 10:24:08;;;;;;;0.50;0.30;;;22.90;99.90;;;;;;5074970;28;20445;-81
2023/09/14 10:26:37;;;;;;;0.50;0.30;;;22.90;99.90;;;;;;5075171;28;20521;-82
2023/09/14 10:29:06;;;;;;;0.60;0.60;;;22.80;99.90;;;;;;5074299;28;20794;-82
2023/09/14 10:31:34;;;;;;;0.50;0.30;;;22.60;99.90;;;;;;5072011;28;20466;-82
2023/09/14 10:34:01;;;;;;;0.50;0.30;;;22.50;99.90;;;;;;5070356;28;20518;-81
2023/09/14 10:36:32;;;;;;;0.50;0.30;;;22.30;99.90;;;;;;5077819;28;20508;-81
2023/09/14 10:39:00;;;;;;;0.50;0.30;;;22.00;99.90;;;;;;5077884;28;20450;-81
2023/09/14 10:41:27;;;;;;;0.50;0.30;;;21.30;99.90;;;;;;5077603;28;20637;-81
2023/09/14 10:43:54;;;;;;;0.50;0.37;;;21.20;99.90;;;;;;5077825;28;20433;-82
2023/09/14 10:46:26;;;;;;;0.50;0.30;;;21.70;99.90;;;;;;5077817;28;20754;-80
2023/09/14 10:48:56;;;;;;;0.63;0.63;;;22.20;99.90;;;;;;5077828;28;20435;-82
2023/09/14 10:51:24;;;;;;;0.50;0.30;;;22.70;99.90;;;;;;5077532;28;21004;-81
2023/09/14 10:53:52;;;;;;;0.50;0.30;;;22.90;99.90;;;;;;5078895;28;20436;-80
2023/09/14 10:56:23;;;;;;;0.50;0.33;;;22.90;99.90;;;;;;5078292;28;20441;-79
2023/09/14 10:58:52;;;;;;;0.50;0.30;;;22.90;99.90;;;;;;5069515;28;20441;-82
2023/09/14 11:01:25;;;;;;;0.50;0.40;;;22.80;99.90;;;;;;5077281;28;20434;-80
2023/09/14 11:04:09;;;;;;;0.50;0.40;;;22.70;99.90;;;;;;5079277;28;20459;-81
2023/09/14 11:06:46;;;;;;;0.50;0.40;;;22.20;99.90;;;;;;5086151;28;20462;-81
2023/09/14 11:09:17;;;;;;;0.50;0.30;;;22.20;99.90;;;;;;5078628;28;20441;-80
2023/09/14 11:11:45;;;;;;;0.50;0.30;;;22.50;99.90;;;;;;5079375;28;20482;-82
2023/09/14 11:14:13;;;;;;;0.50;0.30;;;22.80;99.90;;;;;;5077479;28;20449;-81
2023/09/14 11:16:46;;;;;;;0.50;0.40;;;22.80;99.90;;;;;;5077679;28;20463;-81
2023/09/14 11:19:48;;;;;;;0.50;0.40;;;22.30;99.90;;;;;;5078427;28;20926;-81
2023/09/14 11:22:16;;;;;;;0.50;0.30;;;22.00;99.90;;;;;;5074922;28;20479;-82
2023/09/14 11:24:45;;;;;;;0.50;0.30;;;21.70;99.90;;;;;;5078078;28;20465;-82
2023/09/14 11:27:19;;;;;;;0.50;0.33;;;21.70;99.90;;;;;;5077632;28;20470;-82
2023/09/14 11:29:46;;;;;;;0.50;0.40;;;21.40;99.90;;;;;;5077095;28;20551;-81
2023/09/14 11:32:21;;;;;;;0.50;0.30;;;21.50;99.90;;;;;;5077644;28;20518;-80
2023/09/14 11:34:48;;;;;;;0.50;0.30;;;21.40;99.90;;;;;;5076733;28;20499;-83
2023/09/14 11:37:16;;;;;;;0.50;0.30;;;21.40;99.90;;;;;;5077415;28;20463;-78
2023/09/14 11:39:53;;;;;;;0.50;0.40;;;21.40;99.90;;;;;;5076620;28;20465;-81
2023/09/14 11:45:42;;;;;;;0.50;0.30;;;23.10;99.90;;;;;;5075250;28;20405;-82
2023/09/14 11:48:10;;;;;;;0.50;0.30;;;23.30;99.90;;;;;;5077227;28;20459;-82
2023/09/14 11:50:37;;;;;;;2.10;2.00;;;23.70;99.90;;;;;;5077275;28;20439;-82
2023/09/14 11:53:07;;;;;;;0.50;0.30;;;23.50;99.90;;;;;;5076803;28;20478;-82
2023/09/14 11:55:36;;;;;;;0.50;0.30;;;23.10;99.90;;;;;;5076694;28;20446;-81
2023/09/14 11:58:02;;;;;;;0.50;0.30;;;23.60;99.90;;;;;;5077474;28;20468;-82
2023/09/14 12:00:37;;;;;;;0.50;0.30;;;24.40;99.90;;;;;;5076802;28;20438;-82
2023/09/14 12:03:06;;;;;;;0.50;0.30;;;24.90;99.80;;;;;;5076958;28;20432;-82
2023/09/14 12:05:33;;;;;;;0.50;0.30;;;25.30;96.00;;;;;;5076239;28;20440;-83
2023/09/14 12:08:07;;;;;;;0.50;0.30;;;26.20;95.10;;;;;;5077356;28;20460;-82
2023/09/14 12:10:35;;;;;;;0.50;0.30;;;27.40;93.10;;;;;;5076930;28;20442;-82
2023/09/14 12:13:10;;;;;;;0.50;0.30;;;28.60;90.10;;;;;;5077214;28;20494;-82
2023/09/14 12:15:37;;;;;;;0.50;0.30;;;29.20;81.30;;;;;;5077708;28;20772;-82
2023/09/14 12:18:04;;;;;;;0.50;0.30;;;29.30;81.40;;;;;;5077888;28;20555;-83
2023/09/14 12:20:35;;;;;;;0.50;0.30;;;29.80;76.00;;;;;;5078074;28;20528;-82
2023/09/14 12:23:02;;;;;;;0.50;0.30;;;29.50;72.70;;;;;;5077692;28;20946;-81
2023/09/14 12:25:29;;;;;;;0.50;0.30;;;28.50;73.40;;;;;;5076986;28;20497;-80
2023/09/14 12:27:59;;;;;;;0.50;0.30;;;27.60;79.10;;;;;;5077443;28;20464;-82
2023/09/14 12:30:26;;;;;;;0.80;0.50;;;27.20;81.60;;;;;;5077418;28;20461;-82
2023/09/14 12:32:53;;;;;;;2.57;2.47;;;26.90;76.40;;;;;;5076685;28;20483;-82
2023/09/14 12:35:20;;;;;;;0.50;0.30;;;25.80;75.50;;;;;;5076820;28;20523;-81
2023/09/14 12:37:47;;;;;;;0.50;0.30;;;24.90;81.00;;;;;;5078398;28;20571;-82
2023/09/14 12:40:14;;;;;;;0.50;0.30;;;24.40;84.30;;;;;;5076619;28;20462;-82
2023/09/14 12:42:43;;;;;;;0.50;0.40;;;24.10;87.40;;;;;;5077373;28;20469;-82
2023/09/14 12:45:14;;;;;;;0.50;0.30;;;23.90;90.50;;;;;;5078972;28;20452;-82
2023/09/14 12:47:42;;;;;;;0.50;0.33;;;23.70;86.40;;;;;;5075357;28;20464;-82
2023/09/14 12:50:15;;;;;;;0.50;0.30;;;23.20;87.30;;;;;;5076458;28;20937;-80
2023/09/14 12:52:43;;;;;;;0.50;0.47;;;23.00;91.30;;;;;;5075646;28;20474;-82
2023/09/14 12:55:13;;;;;;;0.50;0.40;;;22.90;99.90;;;;;;5075915;28;20468;-82
2023/09/14 12:57:43;;;;;;;0.50;0.40;;;22.90;98.00;;;;;;5075564;28;20616;-82